createdAt,value
2022-11-08T00:02:20.868Z,24.73
2022-11-08T00:04:47.496Z,25.05
2022-11-08T00:07:32.486Z,25.12
2022-11-08T00:10:17.704Z,24.99
2022-11-08T00:13:03.065Z,24.78
2022-11-08T00:15:29.665Z,24.95
2022-11-08T00:17:56.667Z,25.12
2022-11-08T00:20:23.201Z,25.02
2022-11-08T00:22:50.064Z,24.70
2022-11-08T00:25:16.848Z,24.65
2022-11-08T00:27:43.385Z,25.07
2022-11-08T00:30:10.426Z,25.10
2022-11-08T00:32:36.956Z,25.00
2022-11-08T00:35:03.759Z,24.88
2022-11-08T00:37:30.300Z,25.14
2022-11-08T00:39:56.875Z,24.78
2022-11-08T00:42:23.449Z,25.14
2022-11-08T00:44:49.989Z,24.47
2022-11-08T00:47:16.564Z,24.86
2022-11-08T00:49:43.185Z,24.96
2022-11-08T00:52:09.847Z,24.97
2022-11-08T00:54:36.534Z,23.92
2022-11-08T00:57:03.199Z,24.07
2022-11-08T00:59:29.719Z,24.86
2022-11-08T01:01:56.825Z,24.46
2022-11-08T01:04:23.516Z,25.00
2022-11-08T01:06:50.478Z,24.92
2022-11-08T01:09:17.541Z,25.01
2022-11-08T01:11:46.877Z,25.00
2022-11-08T01:14:15.078Z,24.61
2022-11-08T01:16:42.717Z,24.70
2022-11-08T01:19:09.997Z,24.71
2022-11-08T01:21:36.975Z,24.73
2022-11-08T01:24:03.719Z,24.68
2022-11-08T01:26:30.301Z,24.32
2022-11-08T01:28:57.829Z,24.11
2022-11-08T01:31:29.898Z,23.75
2022-11-08T01:33:57.447Z,24.04
2022-11-08T01:36:25.980Z,24.43
2022-11-08T01:38:53.773Z,24.53
2022-11-08T01:41:22.555Z,24.34
2022-11-08T01:43:51.333Z,24.35
2022-11-08T01:46:36.441Z,24.43
2022-11-08T01:49:28.120Z,24.44
2022-11-08T01:51:58.673Z,24.30
2022-11-08T01:54:35.853Z,24.30
2022-11-08T01:57:06.792Z,24.17
2022-11-08T01:59:35.743Z,23.85
2022-11-08T02:02:02.835Z,23.57
2022-11-08T02:04:29.712Z,24.45
2022-11-08T02:06:56.749Z,24.18
2022-11-08T02:09:23.322Z,23.40
2022-11-08T02:11:51.567Z,24.21
2022-11-08T02:14:18.376Z,24.12
2022-11-08T02:16:45.213Z,23.83
2022-11-08T02:19:19.865Z,23.82
2022-11-08T02:21:52.997Z,24.29
2022-11-08T02:24:19.681Z,24.06
2022-11-08T02:26:47.756Z,24.18
2022-11-08T02:29:27.504Z,24.02
2022-11-08T02:31:55.679Z,24.31
2022-11-08T02:34:43.719Z,23.84
2022-11-08T02:37:12.306Z,23.97
2022-11-08T02:39:38.883Z,23.99
2022-11-08T02:42:05.525Z,23.55
2022-11-08T02:44:32.208Z,23.66
2022-11-08T02:46:58.740Z,23.45
2022-11-08T02:49:25.468Z,23.16
2022-11-08T02:51:53.436Z,23.42
2022-11-08T02:54:20.221Z,23.48
2022-11-08T02:56:46.849Z,23.04
2022-11-08T02:59:14.129Z,23.12
2022-11-08T03:01:41.331Z,22.96
2022-11-08T03:04:08.301Z,22.78
2022-11-08T03:06:35.160Z,22.67
2022-11-08T03:09:02.054Z,22.56
2022-11-08T03:11:28.619Z,22.32
2022-11-08T03:13:55.178Z,22.26
2022-11-08T03:16:22.139Z,22.42
2022-11-08T03:18:48.786Z,22.48
2022-11-08T03:21:15.325Z,22.61
2022-11-08T03:23:42.802Z,23.05
2022-11-08T03:26:09.325Z,22.64
2022-11-08T03:28:36.524Z,22.81
2022-11-08T03:31:03.402Z,22.55
2022-11-08T03:33:30.116Z,22.21
2022-11-08T03:35:56.720Z,22.16
2022-11-08T03:38:23.964Z,21.83
2022-11-08T03:40:51.262Z,21.71
2022-11-08T03:43:18.125Z,22.42
2022-11-08T03:45:45.656Z,22.68
2022-11-08T03:48:12.824Z,21.88
2022-11-08T03:50:39.696Z,22.18
2022-11-08T03:53:06.266Z,22.29
2022-11-08T03:55:32.810Z,21.91
2022-11-08T03:57:59.378Z,22.07
2022-11-08T04:00:28.701Z,22.07
2022-11-08T04:03:01.217Z,21.95
2022-11-08T04:05:28.463Z,21.81
2022-11-08T04:07:55.477Z,21.99
2022-11-08T04:10:22.007Z,21.88
2022-11-08T04:13:07.422Z,22.23
2022-11-08T04:15:34.223Z,21.82
2022-11-08T04:18:19.680Z,21.51
2022-11-08T04:21:06.624Z,21.63
2022-11-08T04:23:35.139Z,21.15
2022-11-08T04:26:05.027Z,21.27
2022-11-08T04:28:35.264Z,21.27
2022-11-08T04:31:05.918Z,21.50
2022-11-08T04:33:33.011Z,21.49
2022-11-08T04:36:09.144Z,21.60
2022-11-08T04:38:36.212Z,21.27
2022-11-08T04:41:05.142Z,20.90
2022-11-08T04:43:32.950Z,20.90
2022-11-08T04:46:01.861Z,20.70
2022-11-08T04:48:28.673Z,21.09
2022-11-08T04:50:55.303Z,21.03
2022-11-08T04:53:22.668Z,21.24
2022-11-08T04:55:49.245Z,21.37
2022-11-08T04:58:16.206Z,21.35
2022-11-08T05:00:42.896Z,21.59
2022-11-08T05:03:09.451Z,21.75
2022-11-08T05:05:36.014Z,21.53
2022-11-08T05:08:02.562Z,20.95
2022-11-08T05:10:29.113Z,21.27
2022-11-08T05:12:57.502Z,21.16
2022-11-08T05:15:24.153Z,20.77
2022-11-08T05:17:50.741Z,21.30
2022-11-08T05:20:36.188Z,21.10
2022-11-08T05:23:21.657Z,20.84
2022-11-08T05:25:48.255Z,21.21
2022-11-08T05:28:15.292Z,20.94
2022-11-08T05:30:42.386Z,20.45
2022-11-08T05:33:09.429Z,21.01
2022-11-08T05:35:36.307Z,20.93
2022-11-08T05:38:02.911Z,20.75
2022-11-08T05:40:33.383Z,20.62
2022-11-08T05:43:00.700Z,21.09
2022-11-08T05:45:27.689Z,20.35
2022-11-08T05:47:54.676Z,20.59
2022-11-08T05:50:21.790Z,20.82
2022-11-08T05:52:48.395Z,20.19
2022-11-08T05:55:15.068Z,20.73
2022-11-08T05:57:43.603Z,20.26
2022-11-08T06:00:12.121Z,20.51
2022-11-08T06:02:39.502Z,20.37
2022-11-08T06:05:07.877Z,20.46
2022-11-08T06:07:35.835Z,20.93
2022-11-08T06:10:03.141Z,20.94
2022-11-08T06:12:29.840Z,21.27
2022-11-08T06:14:56.394Z,21.21
2022-11-08T06:17:26.330Z,21.20
2022-11-08T06:19:57.421Z,21.07
2022-11-08T06:22:23.991Z,21.46
2022-11-08T06:24:50.515Z,21.27
2022-11-08T06:27:17.548Z,21.56
2022-11-08T06:29:44.146Z,21.43
2022-11-08T06:32:11.015Z,21.39
2022-11-08T06:34:37.700Z,21.80
2022-11-08T06:37:05.021Z,21.48
2022-11-08T06:39:31.862Z,21.50
2022-11-08T06:41:58.927Z,21.17
2022-11-08T06:44:25.556Z,21.67
2022-11-08T06:46:55.624Z,22.06
2022-11-08T06:49:23.831Z,21.60
2022-11-08T06:51:51.407Z,21.53
2022-11-08T06:54:21.107Z,21.39
2022-11-08T06:56:49.950Z,21.43
2022-11-08T06:59:16.880Z,21.98
2022-11-08T07:01:45.636Z,21.38
2022-11-08T07:04:12.589Z,21.50
2022-11-08T07:06:39.515Z,21.13
2022-11-08T07:09:06.509Z,21.06
2022-11-08T07:11:33.194Z,20.96
2022-11-08T07:13:59.733Z,21.02
2022-11-08T07:16:26.321Z,20.67
2022-11-08T07:18:55.552Z,21.07
2022-11-08T07:21:23.425Z,20.83
2022-11-08T07:23:50.121Z,20.87
2022-11-08T07:26:16.888Z,21.07
2022-11-08T07:28:43.513Z,21.22
2022-11-08T07:31:11.109Z,21.51
2022-11-08T07:33:37.696Z,21.67
2022-11-08T07:36:04.565Z,21.49
2022-11-08T07:38:31.187Z,21.57
2022-11-08T07:40:59.289Z,21.70
2022-11-08T07:43:27.539Z,22.73
2022-11-08T07:45:59.982Z,23.15
2022-11-08T07:48:28.278Z,24.22
2022-11-08T07:50:59.771Z,23.94
2022-11-08T07:53:46.108Z,24.63
2022-11-08T07:56:12.789Z,25.03
2022-11-08T07:58:44.040Z,26.47
2022-11-08T08:01:33.427Z,26.53
2022-11-08T08:04:00.932Z,26.42
2022-11-08T08:06:27.849Z,27.80
2022-11-08T08:08:55.444Z,28.45
2022-11-08T08:11:26.234Z,27.90
2022-11-08T08:13:58.769Z,26.96
2022-11-08T08:16:51.518Z,27.05
2022-11-08T08:19:30.042Z,26.03
2022-11-08T08:22:08.399Z,25.66
2022-11-08T08:24:39.196Z,26.04
2022-11-08T08:27:32.226Z,25.48
2022-11-08T08:30:20.833Z,24.18
2022-11-08T08:33:02.228Z,24.31
2022-11-08T08:35:38.307Z,23.35
2022-11-08T08:38:07.376Z,23.66
2022-11-08T08:40:35.852Z,23.71
2022-11-08T08:43:23.425Z,23.06
2022-11-08T08:45:52.169Z,23.59
2022-11-08T08:48:29.087Z,23.85
2022-11-08T08:50:56.642Z,24.11
2022-11-08T08:53:23.905Z,23.89
2022-11-08T08:55:52.478Z,24.46
2022-11-08T08:58:25.387Z,24.51
2022-11-08T09:04:12.965Z,25.31
2022-11-08T09:06:52.592Z,25.38
2022-11-08T09:09:36.676Z,25.20
2022-11-08T09:12:03.593Z,25.51
2022-11-08T09:14:30.231Z,25.36
2022-11-08T09:16:56.913Z,25.03
2022-11-08T09:19:23.613Z,25.04
2022-11-08T09:21:50.546Z,25.20
2022-11-08T09:24:17.233Z,25.89
2022-11-08T09:26:43.959Z,25.94
2022-11-08T09:29:11.720Z,25.97
2022-11-08T09:31:38.264Z,26.74
2022-11-08T09:34:04.840Z,27.21
2022-11-08T09:36:31.372Z,27.08
2022-11-08T09:38:57.925Z,26.88
2022-11-08T09:41:43.665Z,27.02
2022-11-08T09:44:33.112Z,25.63
2022-11-08T09:47:11.544Z,25.70
2022-11-08T09:49:44.836Z,25.94
2022-11-08T09:52:21.338Z,26.64
2022-11-08T09:54:48.815Z,26.04
2022-11-08T09:57:27.271Z,26.24
2022-11-08T10:00:01.908Z,25.81
2022-11-08T10:02:34.330Z,25.16
2022-11-08T10:05:06.598Z,24.15
2022-11-08T10:07:52.459Z,25.14
2022-11-08T10:10:37.457Z,24.63
2022-11-08T10:13:32.637Z,24.01
2022-11-08T10:16:36.553Z,24.72
2022-11-08T10:19:06.271Z,24.74
2022-11-08T10:21:54.036Z,24.70
2022-11-08T10:24:44.816Z,25.25
2022-11-08T10:27:21.841Z,26.01
2022-11-08T10:29:57.992Z,26.84
2022-11-08T10:32:25.337Z,27.01
2022-11-08T10:35:02.387Z,26.83
2022-11-08T10:37:32.258Z,26.11
2022-11-08T10:40:05.682Z,25.75
2022-11-08T10:43:17.409Z,25.64
2022-11-08T10:45:44.163Z,26.70
2022-11-08T10:48:14.196Z,25.75
2022-11-08T10:50:49.256Z,25.62
2022-11-08T10:53:31.113Z,26.44
2022-11-08T10:56:02.566Z,26.68
2022-11-08T10:58:36.653Z,26.70
2022-11-08T11:01:16.632Z,25.46
2022-11-08T11:03:45.201Z,25.01
2022-11-08T11:06:32.765Z,24.79
2022-11-08T11:09:18.014Z,24.94
2022-11-08T11:11:45.328Z,25.24
2022-11-08T11:14:22.772Z,24.72
2022-11-08T11:17:08.690Z,24.30
2022-11-08T11:19:35.338Z,24.37
2022-11-08T11:22:05.918Z,24.79
2022-11-08T11:24:46.142Z,25.10
2022-11-08T11:27:24.065Z,25.42
2022-11-08T11:30:30.406Z,25.32
2022-11-08T11:33:02.659Z,25.33
2022-11-08T11:35:36.827Z,25.54
2022-11-08T11:38:10.774Z,25.81
2022-11-08T11:40:45.356Z,25.80
2022-11-08T11:43:21.083Z,26.63
2022-11-08T11:45:55.235Z,26.51
2022-11-08T11:48:27.679Z,25.86
2022-11-08T11:50:55.471Z,26.16
2022-11-08T11:53:27.810Z,25.59
2022-11-08T11:56:03.377Z,25.14
2022-11-08T11:58:35.736Z,25.94
2022-11-08T12:01:15.936Z,25.80
2022-11-08T12:04:01.510Z,25.87
2022-11-08T12:06:57.737Z,25.61
2022-11-08T12:09:53.573Z,25.43
2022-11-08T12:12:31.609Z,25.94
2022-11-08T12:15:13.330Z,25.54
2022-11-08T12:18:04.609Z,25.43
2022-11-08T12:20:51.553Z,24.89
2022-11-08T12:23:30.329Z,24.64
2022-11-08T12:26:08.850Z,24.95
2022-11-08T12:29:03.166Z,26.04
2022-11-08T12:31:35.008Z,25.86
2022-11-08T12:34:20.379Z,26.33
2022-11-08T12:37:02.931Z,26.08
2022-11-08T12:39:35.774Z,26.33
2022-11-08T12:42:14.576Z,26.46
2022-11-08T12:44:49.991Z,26.29
2022-11-08T12:47:51.770Z,25.94
2022-11-08T12:50:18.360Z,25.15
2022-11-08T12:53:11.160Z,24.80
2022-11-08T12:55:41.445Z,25.39
2022-11-08T12:58:14.500Z,25.61
2022-11-08T13:00:43.945Z,24.91
2022-11-08T13:03:22.495Z,25.14
2022-11-08T13:05:58.782Z,25.73
2022-11-08T13:08:37.142Z,25.87
2022-11-08T13:11:07.917Z,26.07
2022-11-08T13:13:55.868Z,25.82
2022-11-08T13:16:28.502Z,25.70
2022-11-08T13:18:58.062Z,26.31
2022-11-08T13:21:28.146Z,25.99
2022-11-08T13:24:42.772Z,25.38
2022-11-08T13:27:35.036Z,26.03
2022-11-08T13:30:16.612Z,25.97
2022-11-08T13:32:43.057Z,25.68
2022-11-08T13:35:24.081Z,26.07
2022-11-08T13:38:12.225Z,26.05
2022-11-08T13:41:03.513Z,25.66
2022-11-08T13:43:33.027Z,26.22
2022-11-08T13:46:27.785Z,26.33
2022-11-08T13:49:05.115Z,25.64
2022-11-08T13:51:36.315Z,25.28
2022-11-08T13:54:21.060Z,26.05
2022-11-08T13:56:54.434Z,25.31
2022-11-08T13:59:29.916Z,25.61
2022-11-08T14:02:21.288Z,25.40
2022-11-08T14:04:47.860Z,25.85
2022-11-08T14:07:41.792Z,25.57
2022-11-08T14:10:32.592Z,25.53
2022-11-08T14:13:25.162Z,26.03
2022-11-08T14:16:00.669Z,26.37
2022-11-08T14:18:33.632Z,26.13
2022-11-08T14:21:03.584Z,25.81
2022-11-08T14:23:32.972Z,26.23
2022-11-08T14:26:07.033Z,26.57
2022-11-08T14:28:39.831Z,26.46
2022-11-08T14:31:22.733Z,26.50
2022-11-08T14:33:50.194Z,25.55
2022-11-08T14:36:19.604Z,25.99
2022-11-08T14:39:01.700Z,25.56
2022-11-08T14:41:29.409Z,25.46
2022-11-08T14:43:58.503Z,25.69
2022-11-08T14:46:39.672Z,25.81
2022-11-08T14:49:17.995Z,25.26
2022-11-08T14:51:45.828Z,25.32
2022-11-08T14:54:18.565Z,25.38
2022-11-08T14:56:46.270Z,25.54
2022-11-08T14:59:14.312Z,24.65
2022-11-08T15:01:45.582Z,24.83
2022-11-08T15:04:16.033Z,24.84
2022-11-08T15:06:49.984Z,24.66
2022-11-08T15:09:30.541Z,25.10
2022-11-08T15:12:01.283Z,25.75
2022-11-08T15:14:32.639Z,26.13
2022-11-08T15:17:03.088Z,25.61
2022-11-08T15:19:41.099Z,25.10
2022-11-08T15:22:29.534Z,25.53
2022-11-08T15:25:29.292Z,25.12
2022-11-08T15:27:58.683Z,25.37
2022-11-08T15:30:31.349Z,25.11
2022-11-08T15:32:58.354Z,25.53
2022-11-08T15:35:34.204Z,25.82
2022-11-08T15:38:03.378Z,25.30
2022-11-08T15:40:32.685Z,25.23
2022-11-08T15:43:00.225Z,24.79
2022-11-08T15:45:33.332Z,25.59
2022-11-08T15:48:10.518Z,25.59
2022-11-08T15:50:37.022Z,25.75
2022-11-08T15:53:05.075Z,25.50
2022-11-08T15:55:36.736Z,25.01
2022-11-08T15:58:04.652Z,25.11
2022-11-08T16:00:36.275Z,25.14
2022-11-08T16:03:03.249Z,24.75
2022-11-08T16:05:34.420Z,24.53
2022-11-08T16:08:00.967Z,24.27
2022-11-08T16:10:31.541Z,24.25
2022-11-08T16:13:00.737Z,24.98
2022-11-08T16:15:30.396Z,24.37
2022-11-08T16:17:57.029Z,24.58
2022-11-08T16:20:25.499Z,24.83
2022-11-08T16:22:52.235Z,24.37
2022-11-08T16:25:18.914Z,24.83
2022-11-08T16:27:52.723Z,24.63
2022-11-08T16:30:19.633Z,25.05
2022-11-08T16:32:46.195Z,24.17
2022-11-08T16:35:12.826Z,24.52
2022-11-08T16:37:40.393Z,25.02
2022-11-08T16:40:33.245Z,24.54
2022-11-08T16:43:00.340Z,24.71
2022-11-08T16:45:50.566Z,24.23
2022-11-08T16:48:17.990Z,26.34
2022-11-08T16:50:45.932Z,27.78
2022-11-08T16:53:20.662Z,27.92
2022-11-08T16:55:48.050Z,29.19
2022-11-08T16:58:15.015Z,28.31
2022-11-08T17:00:44.183Z,29.27
2022-11-08T17:03:16.611Z,28.98
2022-11-08T17:05:43.154Z,26.07
2022-11-08T17:08:10.213Z,25.59
2022-11-08T17:10:36.820Z,25.60
2022-11-08T17:13:03.736Z,24.96
2022-11-08T17:15:30.782Z,25.28
2022-11-08T17:17:58.870Z,24.84
2022-11-08T17:20:26.616Z,24.64
2022-11-08T17:22:54.041Z,24.91
2022-11-08T17:25:23.412Z,24.58
2022-11-08T17:27:51.259Z,24.72
2022-11-08T17:30:23.815Z,25.10
2022-11-08T17:32:53.317Z,24.47
2022-11-08T17:35:20.613Z,24.34
2022-11-08T17:37:47.549Z,24.67
2022-11-08T17:40:14.949Z,24.74
2022-11-08T17:42:41.833Z,24.68
2022-11-08T17:45:10.305Z,24.69
2022-11-08T17:47:40.564Z,25.00
2022-11-08T17:50:08.686Z,24.70
2022-11-08T17:52:36.352Z,24.43
2022-11-08T17:55:03.867Z,24.52
2022-11-08T17:57:30.455Z,24.30
2022-11-08T17:59:57.137Z,24.67
2022-11-08T18:02:23.831Z,24.06
2022-11-08T18:04:51.129Z,24.28
2022-11-08T18:07:17.915Z,24.19
2022-11-08T18:09:44.671Z,24.20
2022-11-08T18:12:11.191Z,24.78
2022-11-08T18:14:37.827Z,23.75
2022-11-08T18:17:05.014Z,23.28
2022-11-08T18:19:32.101Z,23.93
2022-11-08T18:22:00.221Z,24.36
2022-11-08T18:24:26.840Z,24.14
2022-11-08T18:26:53.902Z,24.45
2022-11-08T18:29:20.729Z,24.19
2022-11-08T18:31:47.408Z,24.48
2022-11-08T18:34:14.436Z,23.89
2022-11-08T18:36:41.128Z,24.22
2022-11-08T18:39:07.787Z,24.58
2022-11-08T18:41:34.889Z,24.23
2022-11-08T18:44:02.765Z,24.08
2022-11-08T18:46:34.278Z,23.95
2022-11-08T18:49:06.843Z,24.28
2022-11-08T18:51:33.578Z,24.15
2022-11-08T18:54:00.190Z,24.55
2022-11-08T18:56:26.809Z,24.36
2022-11-08T18:58:54.184Z,24.37
2022-11-08T19:01:20.801Z,24.20
2022-11-08T19:03:47.471Z,24.29
2022-11-08T19:06:14.597Z,24.15
2022-11-08T19:08:41.258Z,23.44
2022-11-08T19:11:11.478Z,23.33
2022-11-08T19:13:39.940Z,23.94
2022-11-08T19:16:08.574Z,24.23
2022-11-08T19:18:35.902Z,24.06
2022-11-08T19:21:14.498Z,23.93
2022-11-08T19:23:41.517Z,24.23
2022-11-08T19:26:16.016Z,23.86
2022-11-08T19:28:45.452Z,24.06
2022-11-08T19:31:14.805Z,24.14
2022-11-08T19:33:41.549Z,24.24
2022-11-08T19:36:13.467Z,24.29
2022-11-08T19:38:41.096Z,24.05
2022-11-08T19:41:11.010Z,24.95
2022-11-08T19:43:39.194Z,24.35
2022-11-08T19:46:09.755Z,24.89
2022-11-08T19:48:39.116Z,24.70
2022-11-08T19:51:09.300Z,25.00
2022-11-08T19:53:36.009Z,24.43
2022-11-08T19:56:05.791Z,24.43
2022-11-08T19:58:34.742Z,24.73
2022-11-08T20:01:16.732Z,24.81
2022-11-08T20:03:44.748Z,24.85
2022-11-08T20:06:12.706Z,24.98
2022-11-08T20:08:41.003Z,24.38
2022-11-08T20:11:35.653Z,24.66
2022-11-08T20:14:03.894Z,24.92
2022-11-08T20:16:37.878Z,24.67
2022-11-08T20:19:08.781Z,24.46
2022-11-08T20:21:35.586Z,24.15
2022-11-08T20:24:02.596Z,24.37
2022-11-08T20:26:29.470Z,24.33
2022-11-08T20:28:57.250Z,24.40
2022-11-08T20:31:25.612Z,23.98
2022-11-08T20:33:53.499Z,24.11
2022-11-08T20:36:23.492Z,24.41
2022-11-08T20:38:54.146Z,24.48
2022-11-08T20:41:20.800Z,24.80
2022-11-08T20:43:47.569Z,24.93
2022-11-08T20:46:17.111Z,24.32
2022-11-08T20:48:44.269Z,24.40
2022-11-08T20:51:13.154Z,24.45
2022-11-08T20:53:40.101Z,24.43
2022-11-08T20:56:18.553Z,24.54
2022-11-08T20:58:47.486Z,24.13
2022-11-08T21:01:17.170Z,24.44
2022-11-08T21:03:45.631Z,24.54
2022-11-08T21:06:18.114Z,23.89
2022-11-08T21:11:34.790Z,23.63
2022-11-08T21:14:02.980Z,23.86
2022-11-08T21:16:33.095Z,24.10
2022-11-08T21:19:05.966Z,24.19
2022-11-08T21:21:33.224Z,24.22
2022-11-08T21:23:59.807Z,24.50
2022-11-08T21:26:26.826Z,24.05
2022-11-08T21:28:53.637Z,24.48
2022-11-08T21:31:20.494Z,25.04
2022-11-08T21:33:47.358Z,24.95
2022-11-08T21:36:14.197Z,25.04
2022-11-08T21:38:40.914Z,24.72
2022-11-08T21:41:09.982Z,24.46
2022-11-08T21:43:38.993Z,24.07
2022-11-08T21:46:17.966Z,24.31
2022-11-08T21:48:45.873Z,24.65
2022-11-08T21:51:13.205Z,24.10
2022-11-08T21:53:49.333Z,24.29
2022-11-08T21:56:19.889Z,24.11
2022-11-08T21:58:46.393Z,23.67
2022-11-08T22:01:13.337Z,23.81
2022-11-08T22:03:40.242Z,24.17
2022-11-08T22:06:07.159Z,24.05
2022-11-08T22:08:33.738Z,24.31
2022-11-08T22:11:00.677Z,24.53
2022-11-08T22:13:27.839Z,24.86
2022-11-08T22:15:54.357Z,24.37
2022-11-08T22:18:36.399Z,24.30
2022-11-08T22:21:27.480Z,24.40
2022-11-08T22:23:55.126Z,24.45
2022-11-08T22:26:22.399Z,24.35
2022-11-08T22:28:48.932Z,23.69
2022-11-08T22:31:15.646Z,23.97
2022-11-08T22:33:42.211Z,23.81
2022-11-08T22:36:09.013Z,24.16
2022-11-08T22:38:36.037Z,24.29
2022-11-08T22:41:02.799Z,24.10
2022-11-08T22:43:33.201Z,23.85
2022-11-08T22:45:59.943Z,24.00
2022-11-08T22:48:26.499Z,24.23
2022-11-08T22:50:53.032Z,24.23
2022-11-08T22:53:19.862Z,24.09
2022-11-08T22:55:47.085Z,24.02
2022-11-08T22:58:13.620Z,23.63
2022-11-08T23:00:40.376Z,24.00
2022-11-08T23:03:06.882Z,23.90
2022-11-08T23:05:33.437Z,23.77
2022-11-08T23:07:59.933Z,23.84
2022-11-08T23:10:26.881Z,23.77
2022-11-08T23:13:12.519Z,24.14
2022-11-08T23:15:58.343Z,23.68
2022-11-08T23:18:27.017Z,23.55
2022-11-08T23:21:15.374Z,23.17
2022-11-08T23:24:01.158Z,23.70
2022-11-08T23:26:46.097Z,23.66
2022-11-08T23:29:31.760Z,23.69
2022-11-08T23:31:58.904Z,23.59
2022-11-08T23:34:26.090Z,23.65
2022-11-08T23:36:55.202Z,23.74
2022-11-08T23:39:21.704Z,23.65
2022-11-08T23:42:06.863Z,23.64
2022-11-08T23:44:33.488Z,23.91
2022-11-08T23:47:01.133Z,23.96
2022-11-08T23:49:28.047Z,24.14
2022-11-08T23:51:55.164Z,23.95
2022-11-08T23:54:21.951Z,23.72
2022-11-08T23:56:48.957Z,23.45
2022-11-08T23:59:16.249Z,23.98
